sensor_id;sensor_type;location;lat;lon;timestamp;P1;durP1;ratioP1;P2;durP2;ratioP2
44694;SDS011;32845;59.422;17.930;2023-04-24T00:00:44;3.75;;;1.60;;
44694;SDS011;32845;59.422;17.930;2023-04-24T00:05:15;2.75;;;1.27;;
44694;SDS011;32845;59.422;17.930;2023-04-24T00:09:47;3.13;;;1.90;;
44694;SDS011;32845;59.422;17.930;2023-04-24T00:14:18;6.93;;;1.77;;
44694;SDS011;32845;59.422;17.930;2023-04-24T00:18:48;2.38;;;1.50;;
44694;SDS011;32845;59.422;17.930;2023-04-24T00:23:19;2.78;;;1.45;;
44694;SDS011;32845;59.422;17.930;2023-04-24T00:27:50;2.17;;;1.00;;
44694;SDS011;32845;59.422;17.930;2023-04-24T00:32:20;1.80;;;0.90;;
44694;SDS011;32845;59.422;17.930;2023-04-24T00:36:51;3.10;;;1.02;;
44694;SDS011;32845;59.422;17.930;2023-04-24T00:41:22;2.72;;;0.80;;
44694;SDS011;32845;59.422;17.930;2023-04-24T00:45:54;5.38;;;1.25;;
44694;SDS011;32845;59.422;17.930;2023-04-24T00:50:25;3.55;;;1.10;;
44694;SDS011;32845;59.422;17.930;2023-04-24T00:54:56;1.08;;;0.70;;
44694;SDS011;32845;59.422;17.930;2023-04-24T00:59:27;2.75;;;1.17;;
44694;SDS011;32845;59.422;17.930;2023-04-24T01:03:57;2.65;;;0.98;;
44694;SDS011;32845;59.422;17.930;2023-04-24T01:08:29;2.30;;;1.20;;
44694;SDS011;32845;59.422;17.930;2023-04-24T01:13:00;2.53;;;1.05;;
44694;SDS011;32845;59.422;17.930;2023-04-24T01:17:31;5.47;;;1.08;;
44694;SDS011;32845;59.422;17.930;2023-04-24T01:22:02;2.30;;;0.80;;
44694;SDS011;32845;59.422;17.930;2023-04-24T01:26:35;2.33;;;0.90;;
44694;SDS011;32845;59.422;17.930;2023-04-24T01:31:05;4.18;;;1.30;;
44694;SDS011;32845;59.422;17.930;2023-04-24T01:35:37;5.32;;;0.85;;
44694;SDS011;32845;59.422;17.930;2023-04-24T01:40:08;3.30;;;1.08;;
44694;SDS011;32845;59.422;17.930;2023-04-24T01:44:39;2.60;;;0.82;;
44694;SDS011;32845;59.422;17.930;2023-04-24T01:49:10;5.05;;;0.98;;
44694;SDS011;32845;59.422;17.930;2023-04-24T01:53:41;2.40;;;0.80;;
44694;SDS011;32845;59.422;17.930;2023-04-24T01:58:12;5.78;;;1.52;;
44694;SDS011;32845;59.422;17.930;2023-04-24T02:02:42;5.13;;;1.50;;
44694;SDS011;32845;59.422;17.930;2023-04-24T02:07:14;3.85;;;1.05;;
44694;SDS011;32845;59.422;17.930;2023-04-24T02:11:45;4.68;;;1.35;;
44694;SDS011;32845;59.422;17.930;2023-04-24T02:16:15;8.25;;;1.40;;
44694;SDS011;32845;59.422;17.930;2023-04-24T02:20:46;2.88;;;1.20;;
44694;SDS011;32845;59.422;17.930;2023-04-24T02:25:17;3.00;;;1.23;;
44694;SDS011;32845;59.422;17.930;2023-04-24T02:29:47;6.47;;;1.80;;
44694;SDS011;32845;59.422;17.930;2023-04-24T02:34:18;5.90;;;1.70;;
44694;SDS011;32845;59.422;17.930;2023-04-24T02:38:49;6.40;;;1.83;;
44694;SDS011;32845;59.422;17.930;2023-04-24T02:43:19;8.77;;;2.85;;
44694;SDS011;32845;59.422;17.930;2023-04-24T02:47:50;6.47;;;1.95;;
44694;SDS011;32845;59.422;17.930;2023-04-24T02:52:21;6.00;;;1.73;;
44694;SDS011;32845;59.422;17.930;2023-04-24T02:56:52;9.43;;;2.40;;
44694;SDS011;32845;59.422;17.930;2023-04-24T03:01:22;6.70;;;1.90;;
44694;SDS011;32845;59.422;17.930;2023-04-24T03:05:53;6.78;;;1.90;;
44694;SDS011;32845;59.422;17.930;2023-04-24T03:10:25;3.60;;;1.30;;
44694;SDS011;32845;59.422;17.930;2023-04-24T03:14:56;4.78;;;1.90;;
44694;SDS011;32845;59.422;17.930;2023-04-24T03:19:26;7.00;;;1.67;;
44694;SDS011;32845;59.422;17.930;2023-04-24T03:23:57;5.78;;;1.38;;
44694;SDS011;32845;59.422;17.930;2023-04-24T03:28:28;4.47;;;1.60;;
44694;SDS011;32845;59.422;17.930;2023-04-24T03:32:58;5.75;;;1.83;;
44694;SDS011;32845;59.422;17.930;2023-04-24T03:37:29;4.85;;;1.45;;
44694;SDS011;32845;59.422;17.930;2023-04-24T03:42:00;4.18;;;1.70;;
44694;SDS011;32845;59.422;17.930;2023-04-24T03:46:31;4.15;;;1.55;;
44694;SDS011;32845;59.422;17.930;2023-04-24T03:51:02;6.43;;;1.55;;
44694;SDS011;32845;59.422;17.930;2023-04-24T03:55:33;4.72;;;1.60;;
44694;SDS011;32845;59.422;17.930;2023-04-24T04:00:04;7.05;;;1.80;;
44694;SDS011;32845;59.422;17.930;2023-04-24T04:04:35;5.43;;;1.73;;
44694;SDS011;32845;59.422;17.930;2023-04-24T04:09:06;5.50;;;2.10;;
44694;SDS011;32845;59.422;17.930;2023-04-24T04:13:37;6.95;;;2.13;;
44694;SDS011;32845;59.422;17.930;2023-04-24T04:18:07;5.57;;;2.38;;
44694;SDS011;32845;59.422;17.930;2023-04-24T04:22:38;6.35;;;2.55;;
44694;SDS011;32845;59.422;17.930;2023-04-24T04:27:09;6.95;;;2.65;;
44694;SDS011;32845;59.422;17.930;2023-04-24T04:31:40;8.52;;;2.80;;
44694;SDS011;32845;59.422;17.930;2023-04-24T04:36:11;6.88;;;2.50;;
44694;SDS011;32845;59.422;17.930;2023-04-24T04:40:42;11.60;;;3.28;;
44694;SDS011;32845;59.422;17.930;2023-04-24T04:45:13;7.35;;;2.75;;
44694;SDS011;32845;59.422;17.930;2023-04-24T04:49:46;15.05;;;2.92;;
44694;SDS011;32845;59.422;17.930;2023-04-24T04:54:18;5.88;;;2.30;;
44694;SDS011;32845;59.422;17.930;2023-04-24T04:58:48;9.48;;;2.95;;
44694;SDS011;32845;59.422;17.930;2023-04-24T05:03:19;9.48;;;3.38;;
44694;SDS011;32845;59.422;17.930;2023-04-24T05:07:50;4.72;;;2.22;;
44694;SDS011;32845;59.422;17.930;2023-04-24T05:12:21;9.57;;;2.45;;
44694;SDS011;32845;59.422;17.930;2023-04-24T05:16:51;5.85;;;2.33;;
44694;SDS011;32845;59.422;17.930;2023-04-24T05:21:22;11.45;;;2.40;;
44694;SDS011;32845;59.422;17.930;2023-04-24T05:25:53;7.25;;;1.67;;
44694;SDS011;32845;59.422;17.930;2023-04-24T05:30:23;6.13;;;2.30;;
44694;SDS011;32845;59.422;17.930;2023-04-24T05:34:54;5.22;;;2.38;;
44694;SDS011;32845;59.422;17.930;2023-04-24T05:39:25;9.80;;;2.35;;
44694;SDS011;32845;59.422;17.930;2023-04-24T05:43:56;5.85;;;2.38;;
44694;SDS011;32845;59.422;17.930;2023-04-24T05:48:26;10.40;;;2.85;;
44694;SDS011;32845;59.422;17.930;2023-04-24T05:52:57;7.43;;;2.58;;
44694;SDS011;32845;59.422;17.930;2023-04-24T05:57:28;9.05;;;2.40;;
44694;SDS011;32845;59.422;17.930;2023-04-24T06:01:59;5.70;;;2.80;;
44694;SDS011;32845;59.422;17.930;2023-04-24T06:06:29;6.55;;;2.65;;
44694;SDS011;32845;59.422;17.930;2023-04-24T06:11:01;5.05;;;2.65;;
44694;SDS011;32845;59.422;17.930;2023-04-24T06:15:32;6.03;;;2.42;;
44694;SDS011;32845;59.422;17.930;2023-04-24T06:20:03;7.15;;;2.70;;
44694;SDS011;32845;59.422;17.930;2023-04-24T06:24:36;5.60;;;2.30;;
44694;SDS011;32845;59.422;17.930;2023-04-24T06:29:07;6.35;;;2.45;;
44694;SDS011;32845;59.422;17.930;2023-04-24T06:33:37;3.47;;;1.90;;
44694;SDS011;32845;59.422;17.930;2023-04-24T06:38:08;5.63;;;2.17;;
44694;SDS011;32845;59.422;17.930;2023-04-24T06:42:39;6.75;;;2.25;;
44694;SDS011;32845;59.422;17.930;2023-04-24T06:47:09;5.75;;;2.60;;
44694;SDS011;32845;59.422;17.930;2023-04-24T06:51:40;8.52;;;2.75;;
44694;SDS011;32845;59.422;17.930;2023-04-24T06:56:11;6.57;;;2.38;;
44694;SDS011;32845;59.422;17.930;2023-04-24T07:00:42;4.85;;;1.85;;
44694;SDS011;32845;59.422;17.930;2023-04-24T07:05:12;3.58;;;2.00;;
44694;SDS011;32845;59.422;17.930;2023-04-24T07:09:45;3.97;;;1.90;;
44694;SDS011;32845;59.422;17.930;2023-04-24T07:14:16;5.32;;;1.80;;
44694;SDS011;32845;59.422;17.930;2023-04-24T07:18:47;4.22;;;1.95;;
44694;SDS011;32845;59.422;17.930;2023-04-24T07:23:18;3.38;;;1.95;;
44694;SDS011;32845;59.422;17.930;2023-04-24T07:27:49;3.60;;;1.30;;
44694;SDS011;32845;59.422;17.930;2023-04-24T07:32:20;3.47;;;1.27;;
44694;SDS011;32845;59.422;17.930;2023-04-24T07:36:50;2.40;;;1.35;;
44694;SDS011;32845;59.422;17.930;2023-04-24T07:41:21;3.55;;;1.33;;
44694;SDS011;32845;59.422;17.930;2023-04-24T07:45:54;3.67;;;1.52;;
44694;SDS011;32845;59.422;17.930;2023-04-24T07:50:24;2.80;;;1.60;;
44694;SDS011;32845;59.422;17.930;2023-04-24T07:54:55;2.90;;;1.40;;
44694;SDS011;32845;59.422;17.930;2023-04-24T07:59:30;3.85;;;1.23;;
44694;SDS011;32845;59.422;17.930;2023-04-24T08:04:01;2.78;;;1.67;;
44694;SDS011;32845;59.422;17.930;2023-04-24T08:08:33;4.80;;;1.70;;
44694;SDS011;32845;59.422;17.930;2023-04-24T08:13:03;3.70;;;1.30;;
44694;SDS011;32845;59.422;17.930;2023-04-24T08:17:34;4.80;;;1.83;;
44694;SDS011;32845;59.422;17.930;2023-04-24T08:22:05;2.60;;;1.60;;
44694;SDS011;32845;59.422;17.930;2023-04-24T08:26:36;3.58;;;1.95;;
44694;SDS011;32845;59.422;17.930;2023-04-24T08:31:07;3.40;;;1.67;;
44694;SDS011;32845;59.422;17.930;2023-04-24T08:35:37;3.28;;;1.30;;
44694;SDS011;32845;59.422;17.930;2023-04-24T08:40:12;3.00;;;1.52;;
44694;SDS011;32845;59.422;17.930;2023-04-24T08:44:45;3.08;;;1.60;;
44694;SDS011;32845;59.422;17.930;2023-04-24T08:49:16;6.55;;;1.50;;
44694;SDS011;32845;59.422;17.930;2023-04-24T08:53:47;6.32;;;1.80;;
44694;SDS011;32845;59.422;17.930;2023-04-24T08:58:19;4.40;;;1.58;;
44694;SDS011;32845;59.422;17.930;2023-04-24T09:02:50;3.53;;;1.35;;
44694;SDS011;32845;59.422;17.930;2023-04-24T09:07:22;2.53;;;1.20;;
44694;SDS011;32845;59.422;17.930;2023-04-24T09:11:55;2.67;;;1.30;;
44694;SDS011;32845;59.422;17.930;2023-04-24T09:16:27;1.77;;;1.13;;
44694;SDS011;32845;59.422;17.930;2023-04-24T09:20:58;2.17;;;1.33;;
44694;SDS011;32845;59.422;17.930;2023-04-24T09:25:33;3.38;;;1.55;;
44694;SDS011;32845;59.422;17.930;2023-04-24T09:30:07;2.40;;;1.20;;
44694;SDS011;32845;59.422;17.930;2023-04-24T09:34:38;3.08;;;1.25;;
44694;SDS011;32845;59.422;17.930;2023-04-24T09:39:11;8.27;;;1.40;;
44694;SDS011;32845;59.422;17.930;2023-04-24T09:43:43;3.00;;;1.45;;
44694;SDS011;32845;59.422;17.930;2023-04-24T09:48:14;2.65;;;1.40;;
44694;SDS011;32845;59.422;17.930;2023-04-24T09:53:06;1.85;;;1.20;;
44694;SDS011;32845;59.422;17.930;2023-04-24T09:57:47;2.13;;;1.20;;
44694;SDS011;32845;59.422;17.930;2023-04-24T10:02:21;2.22;;;1.30;;
44694;SDS011;32845;59.422;17.930;2023-04-24T10:06:53;1.98;;;1.23;;
44694;SDS011;32845;59.422;17.930;2023-04-24T10:11:26;3.25;;;1.30;;
44694;SDS011;32845;59.422;17.930;2023-04-24T10:15:57;2.90;;;1.10;;
44694;SDS011;32845;59.422;17.930;2023-04-24T10:20:30;1.58;;;1.05;;
44694;SDS011;32845;59.422;17.930;2023-04-24T10:25:01;2.58;;;1.35;;
44694;SDS011;32845;59.422;17.930;2023-04-24T10:29:35;2.28;;;1.30;;
44694;SDS011;32845;59.422;17.930;2023-04-24T10:34:07;2.60;;;1.20;;
44694;SDS011;32845;59.422;17.930;2023-04-24T10:38:40;5.55;;;1.40;;
44694;SDS011;32845;59.422;17.930;2023-04-24T10:43:13;4.18;;;1.88;;
44694;SDS011;32845;59.422;17.930;2023-04-24T10:47:56;2.25;;;1.23;;
44694;SDS011;32845;59.422;17.930;2023-04-24T10:52:43;2.90;;;1.15;;
44694;SDS011;32845;59.422;17.930;2023-04-24T11:01:52;1.75;;;1.08;;
44694;SDS011;32845;59.422;17.930;2023-04-24T11:06:35;1.80;;;1.10;;
44694;SDS011;32845;59.422;17.930;2023-04-24T11:11:13;6.22;;;1.20;;
44694;SDS011;32845;59.422;17.930;2023-04-24T11:20:38;1.90;;;1.10;;
44694;SDS011;32845;59.422;17.930;2023-04-24T11:25:13;3.85;;;1.33;;
44694;SDS011;32845;59.422;17.930;2023-04-24T11:34:18;1.85;;;1.17;;
44694;SDS011;32845;59.422;17.930;2023-04-24T11:38:50;2.97;;;1.15;;
44694;SDS011;32845;59.422;17.930;2023-04-24T11:43:21;2.30;;;1.00;;
44694;SDS011;32845;59.422;17.930;2023-04-24T11:47:52;2.92;;;1.30;;
44694;SDS011;32845;59.422;17.930;2023-04-24T11:52:23;2.33;;;1.20;;
44694;SDS011;32845;59.422;17.930;2023-04-24T11:56:55;1.88;;;1.20;;
44694;SDS011;32845;59.422;17.930;2023-04-24T12:01:26;1.48;;;1.00;;
44694;SDS011;32845;59.422;17.930;2023-04-24T12:06:10;2.63;;;1.40;;
44694;SDS011;32845;59.422;17.930;2023-04-24T12:10:41;5.80;;;1.27;;
44694;SDS011;32845;59.422;17.930;2023-04-24T12:15:12;1.75;;;1.10;;
44694;SDS011;32845;59.422;17.930;2023-04-24T12:19:48;3.42;;;1.60;;
44694;SDS011;32845;59.422;17.930;2023-04-24T12:24:20;2.90;;;1.00;;
44694;SDS011;32845;59.422;17.930;2023-04-24T12:28:51;3.28;;;1.55;;
44694;SDS011;32845;59.422;17.930;2023-04-24T12:33:22;6.22;;;1.67;;
44694;SDS011;32845;59.422;17.930;2023-04-24T12:37:52;3.45;;;1.48;;
44694;SDS011;32845;59.422;17.930;2023-04-24T12:42:27;3.10;;;1.60;;
44694;SDS011;32845;59.422;17.930;2023-04-24T12:46:59;2.03;;;1.30;;
44694;SDS011;32845;59.422;17.930;2023-04-24T12:51:30;5.28;;;2.30;;
44694;SDS011;32845;59.422;17.930;2023-04-24T12:56:00;2.95;;;1.60;;
44694;SDS011;32845;59.422;17.930;2023-04-24T13:00:31;3.25;;;1.67;;
44694;SDS011;32845;59.422;17.930;2023-04-24T13:05:02;4.43;;;1.90;;
44694;SDS011;32845;59.422;17.930;2023-04-24T13:09:34;2.17;;;1.52;;
44694;SDS011;32845;59.422;17.930;2023-04-24T13:14:05;7.47;;;1.95;;
44694;SDS011;32845;59.422;17.930;2023-04-24T13:18:36;6.13;;;2.13;;
44694;SDS011;32845;59.422;17.930;2023-04-24T13:23:06;7.05;;;2.10;;
44694;SDS011;32845;59.422;17.930;2023-04-24T13:27:40;6.07;;;2.20;;
44694;SDS011;32845;59.422;17.930;2023-04-24T13:32:10;4.07;;;2.00;;
44694;SDS011;32845;59.422;17.930;2023-04-24T13:36:41;8.25;;;1.98;;
44694;SDS011;32845;59.422;17.930;2023-04-24T13:41:12;6.65;;;1.92;;
44694;SDS011;32845;59.422;17.930;2023-04-24T13:45:43;4.55;;;1.85;;
44694;SDS011;32845;59.422;17.930;2023-04-24T13:50:13;4.25;;;2.03;;
44694;SDS011;32845;59.422;17.930;2023-04-24T13:54:45;7.03;;;2.40;;
44694;SDS011;32845;59.422;17.930;2023-04-24T13:59:15;9.93;;;2.20;;
44694;SDS011;32845;59.422;17.930;2023-04-24T14:03:46;3.85;;;1.83;;
44694;SDS011;32845;59.422;17.930;2023-04-24T14:08:16;4.03;;;1.90;;
44694;SDS011;32845;59.422;17.930;2023-04-24T14:12:47;3.28;;;2.05;;
44694;SDS011;32845;59.422;17.930;2023-04-24T14:17:18;4.63;;;2.05;;
44694;SDS011;32845;59.422;17.930;2023-04-24T14:21:49;7.18;;;2.00;;
44694;SDS011;32845;59.422;17.930;2023-04-24T14:26:19;5.80;;;2.30;;
44694;SDS011;32845;59.422;17.930;2023-04-24T14:30:50;5.03;;;2.30;;
44694;SDS011;32845;59.422;17.930;2023-04-24T14:35:21;4.22;;;1.90;;
44694;SDS011;32845;59.422;17.930;2023-04-24T14:39:52;7.82;;;2.15;;
44694;SDS011;32845;59.422;17.930;2023-04-24T14:44:22;8.10;;;2.50;;
44694;SDS011;32845;59.422;17.930;2023-04-24T14:48:53;4.63;;;2.13;;
44694;SDS011;32845;59.422;17.930;2023-04-24T14:53:24;6.30;;;2.40;;
44694;SDS011;32845;59.422;17.930;2023-04-24T14:57:55;8.27;;;2.15;;
44694;SDS011;32845;59.422;17.930;2023-04-24T15:02:25;4.35;;;1.98;;
44694;SDS011;32845;59.422;17.930;2023-04-24T15:06:56;5.25;;;2.00;;
44694;SDS011;32845;59.422;17.930;2023-04-24T15:11:27;4.75;;;2.40;;
44694;SDS011;32845;59.422;17.930;2023-04-24T15:15:57;5.22;;;2.50;;
44694;SDS011;32845;59.422;17.930;2023-04-24T15:20:28;3.88;;;2.08;;
44694;SDS011;32845;59.422;17.930;2023-04-24T15:24:59;6.97;;;2.38;;
44694;SDS011;32845;59.422;17.930;2023-04-24T15:29:31;4.30;;;1.50;;
44694;SDS011;32845;59.422;17.930;2023-04-24T15:34:01;10.52;;;2.00;;
44694;SDS011;32845;59.422;17.930;2023-04-24T15:38:32;5.07;;;2.47;;
44694;SDS011;32845;59.422;17.930;2023-04-24T15:43:03;3.83;;;1.80;;
44694;SDS011;32845;59.422;17.930;2023-04-24T15:47:33;7.07;;;2.10;;
44694;SDS011;32845;59.422;17.930;2023-04-24T15:52:05;3.28;;;1.85;;
44694;SDS011;32845;59.422;17.930;2023-04-24T15:56:36;6.55;;;2.38;;
44694;SDS011;32845;59.422;17.930;2023-04-24T16:01:06;4.30;;;2.28;;
44694;SDS011;32845;59.422;17.930;2023-04-24T16:05:37;3.33;;;2.00;;
44694;SDS011;32845;59.422;17.930;2023-04-24T16:10:09;9.15;;;1.98;;
44694;SDS011;32845;59.422;17.930;2023-04-24T16:14:40;6.68;;;2.15;;
44694;SDS011;32845;59.422;17.930;2023-04-24T16:19:11;13.70;;;2.10;;
44694;SDS011;32845;59.422;17.930;2023-04-24T16:23:41;5.72;;;2.40;;
44694;SDS011;32845;59.422;17.930;2023-04-24T16:28:12;4.18;;;2.30;;
44694;SDS011;32845;59.422;17.930;2023-04-24T16:32:44;5.90;;;2.70;;
44694;SDS011;32845;59.422;17.930;2023-04-24T16:37:14;6.00;;;2.45;;
44694;SDS011;32845;59.422;17.930;2023-04-24T16:41:45;4.78;;;2.25;;
44694;SDS011;32845;59.422;17.930;2023-04-24T16:46:18;5.22;;;1.95;;
44694;SDS011;32845;59.422;17.930;2023-04-24T16:50:49;7.25;;;2.63;;
44694;SDS011;32845;59.422;17.930;2023-04-24T16:55:20;3.97;;;1.95;;
44694;SDS011;32845;59.422;17.930;2023-04-24T16:59:51;3.67;;;1.80;;
44694;SDS011;32845;59.422;17.930;2023-04-24T17:04:21;4.68;;;2.15;;
44694;SDS011;32845;59.422;17.930;2023-04-24T17:08:52;2.88;;;1.50;;
44694;SDS011;32845;59.422;17.930;2023-04-24T17:13:23;4.03;;;1.90;;
44694;SDS011;32845;59.422;17.930;2023-04-24T17:17:53;6.63;;;2.30;;
44694;SDS011;32845;59.422;17.930;2023-04-24T17:22:24;4.25;;;2.17;;
44694;SDS011;32845;59.422;17.930;2023-04-24T17:26:55;3.97;;;2.13;;
44694;SDS011;32845;59.422;17.930;2023-04-24T17:31:27;4.80;;;2.00;;
44694;SDS011;32845;59.422;17.930;2023-04-24T17:35:58;3.97;;;1.77;;
44694;SDS011;32845;59.422;17.930;2023-04-24T17:40:32;3.38;;;1.70;;
44694;SDS011;32845;59.422;17.930;2023-04-24T17:45:03;7.40;;;2.08;;
44694;SDS011;32845;59.422;17.930;2023-04-24T17:49:34;3.20;;;1.92;;
44694;SDS011;32845;59.422;17.930;2023-04-24T17:54:07;7.25;;;2.45;;
44694;SDS011;32845;59.422;17.930;2023-04-24T17:58:38;4.50;;;2.05;;
44694;SDS011;32845;59.422;17.930;2023-04-24T18:03:09;5.93;;;1.80;;
44694;SDS011;32845;59.422;17.930;2023-04-24T18:07:40;5.03;;;2.13;;
44694;SDS011;32845;59.422;17.930;2023-04-24T18:12:11;5.07;;;1.83;;
44694;SDS011;32845;59.422;17.930;2023-04-24T18:16:41;4.70;;;2.47;;
44694;SDS011;32845;59.422;17.930;2023-04-24T18:21:12;4.25;;;2.55;;
44694;SDS011;32845;59.422;17.930;2023-04-24T18:25:43;5.13;;;2.38;;
44694;SDS011;32845;59.422;17.930;2023-04-24T18:30:13;4.07;;;2.30;;
44694;SDS011;32845;59.422;17.930;2023-04-24T18:34:44;5.90;;;2.58;;
44694;SDS011;32845;59.422;17.930;2023-04-24T18:39:15;5.78;;;2.47;;
44694;SDS011;32845;59.422;17.930;2023-04-24T18:43:45;4.82;;;2.72;;
44694;SDS011;32845;59.422;17.930;2023-04-24T18:48:16;3.60;;;2.10;;
44694;SDS011;32845;59.422;17.930;2023-04-24T18:52:52;7.00;;;2.63;;
44694;SDS011;32845;59.422;17.930;2023-04-24T18:57:23;4.63;;;2.10;;
44694;SDS011;32845;59.422;17.930;2023-04-24T19:01:53;4.97;;;2.45;;
44694;SDS011;32845;59.422;17.930;2023-04-24T19:06:24;6.07;;;2.10;;
44694;SDS011;32845;59.422;17.930;2023-04-24T19:10:55;6.25;;;2.60;;
44694;SDS011;32845;59.422;17.930;2023-04-24T19:15:26;4.95;;;1.85;;
44694;SDS011;32845;59.422;17.930;2023-04-24T19:19:58;4.25;;;2.10;;
44694;SDS011;32845;59.422;17.930;2023-04-24T19:24:29;4.28;;;2.15;;
44694;SDS011;32845;59.422;17.930;2023-04-24T19:29:02;5.13;;;2.30;;
44694;SDS011;32845;59.422;17.930;2023-04-24T19:33:33;4.93;;;2.00;;
44694;SDS011;32845;59.422;17.930;2023-04-24T19:38:04;5.18;;;2.20;;
44694;SDS011;32845;59.422;17.930;2023-04-24T19:42:35;3.55;;;2.13;;
44694;SDS011;32845;59.422;17.930;2023-04-24T19:47:06;6.35;;;2.40;;
44694;SDS011;32845;59.422;17.930;2023-04-24T19:51:37;4.55;;;1.65;;
44694;SDS011;32845;59.422;17.930;2023-04-24T19:56:08;9.95;;;2.70;;
44694;SDS011;32845;59.422;17.930;2023-04-24T20:00:39;3.83;;;2.20;;
44694;SDS011;32845;59.422;17.930;2023-04-24T20:05:10;7.10;;;2.40;;
44694;SDS011;32845;59.422;17.930;2023-04-24T20:09:41;4.15;;;2.13;;
44694;SDS011;32845;59.422;17.930;2023-04-24T20:14:11;4.20;;;2.05;;
44694;SDS011;32845;59.422;17.930;2023-04-24T20:18:43;7.35;;;1.95;;
44694;SDS011;32845;59.422;17.930;2023-04-24T20:23:13;9.25;;;2.00;;
44694;SDS011;32845;59.422;17.930;2023-04-24T20:27:44;7.07;;;2.30;;
44694;SDS011;32845;59.422;17.930;2023-04-24T20:32:15;6.00;;;2.08;;
44694;SDS011;32845;59.422;17.930;2023-04-24T20:36:46;4.70;;;1.80;;
44694;SDS011;32845;59.422;17.930;2023-04-24T20:41:16;3.83;;;2.10;;
44694;SDS011;32845;59.422;17.930;2023-04-24T20:45:48;5.45;;;2.05;;
44694;SDS011;32845;59.422;17.930;2023-04-24T20:50:19;3.25;;;1.77;;
44694;SDS011;32845;59.422;17.930;2023-04-24T20:54:50;8.20;;;2.15;;
44694;SDS011;32845;59.422;17.930;2023-04-24T20:59:20;2.67;;;1.35;;
44694;SDS011;32845;59.422;17.930;2023-04-24T21:03:51;6.47;;;1.65;;
44694;SDS011;32845;59.422;17.930;2023-04-24T21:08:22;4.72;;;2.00;;
44694;SDS011;32845;59.422;17.930;2023-04-24T21:12:52;3.75;;;1.63;;
44694;SDS011;32845;59.422;17.930;2023-04-24T21:17:23;6.30;;;2.00;;
44694;SDS011;32845;59.422;17.930;2023-04-24T21:21:54;3.67;;;1.70;;
44694;SDS011;32845;59.422;17.930;2023-04-24T21:26:24;3.35;;;1.60;;
44694;SDS011;32845;59.422;17.930;2023-04-24T21:30:55;3.83;;;1.80;;
44694;SDS011;32845;59.422;17.930;2023-04-24T21:35:26;3.65;;;1.90;;
44694;SDS011;32845;59.422;17.930;2023-04-24T21:39:56;6.63;;;2.05;;
44694;SDS011;32845;59.422;17.930;2023-04-24T21:44:27;4.75;;;2.25;;
44694;SDS011;32845;59.422;17.930;2023-04-24T21:48:58;3.85;;;2.10;;
44694;SDS011;32845;59.422;17.930;2023-04-24T21:53:28;4.03;;;1.50;;
44694;SDS011;32845;59.422;17.930;2023-04-24T21:57:59;2.97;;;1.88;;
44694;SDS011;32845;59.422;17.930;2023-04-24T22:02:30;5.32;;;2.35;;
44694;SDS011;32845;59.422;17.930;2023-04-24T22:07:00;5.82;;;2.20;;
44694;SDS011;32845;59.422;17.930;2023-04-24T22:11:32;6.03;;;2.20;;
44694;SDS011;32845;59.422;17.930;2023-04-24T22:16:03;3.70;;;2.00;;
44694;SDS011;32845;59.422;17.930;2023-04-24T22:20:33;5.72;;;2.25;;
44694;SDS011;32845;59.422;17.930;2023-04-24T22:25:04;7.45;;;2.45;;
44694;SDS011;32845;59.422;17.930;2023-04-24T22:29:36;3.75;;;1.95;;
44694;SDS011;32845;59.422;17.930;2023-04-24T22:34:07;6.85;;;2.67;;
44694;SDS011;32845;59.422;17.930;2023-04-24T22:38:38;5.47;;;2.28;;
44694;SDS011;32845;59.422;17.930;2023-04-24T22:43:08;7.07;;;2.40;;
44694;SDS011;32845;59.422;17.930;2023-04-24T22:47:39;4.82;;;2.22;;
44694;SDS011;32845;59.422;17.930;2023-04-24T22:52:10;3.55;;;2.05;;
44694;SDS011;32845;59.422;17.930;2023-04-24T22:56:43;6.90;;;2.50;;
44694;SDS011;32845;59.422;17.930;2023-04-24T23:01:15;6.30;;;2.15;;
44694;SDS011;32845;59.422;17.930;2023-04-24T23:05:46;3.13;;;2.03;;
44694;SDS011;32845;59.422;17.930;2023-04-24T23:10:17;3.90;;;2.30;;
44694;SDS011;32845;59.422;17.930;2023-04-24T23:14:47;4.82;;;1.90;;
44694;SDS011;32845;59.422;17.930;2023-04-24T23:19:18;4.10;;;2.10;;
44694;SDS011;32845;59.422;17.930;2023-04-24T23:23:49;6.22;;;1.80;;
44694;SDS011;32845;59.422;17.930;2023-04-24T23:28:21;3.45;;;2.17;;
44694;SDS011;32845;59.422;17.930;2023-04-24T23:32:52;7.07;;;1.88;;
44694;SDS011;32845;59.422;17.930;2023-04-24T23:37:23;3.50;;;2.25;;
44694;SDS011;32845;59.422;17.930;2023-04-24T23:41:53;4.47;;;2.20;;
44694;SDS011;32845;59.422;17.930;2023-04-24T23:46:25;3.92;;;1.95;;
44694;SDS011;32845;59.422;17.930;2023-04-24T23:50:56;6.35;;;2.10;;
44694;SDS011;32845;59.422;17.930;2023-04-24T23:55:26;4.85;;;1.75;;
44694;SDS011;32845;59.422;17.930;2023-04-24T23:59:57;3.75;;;2.30;;
